PWSweather.com
Personal Weather Stations
Station Observations
EI4HQ
Cork Harbour, CobhIE

Cork HarbourCobhIE

Lat: 51.85, Lon: -8.29

Elevation: 252

Station Type: Davis Vantage Pro2

http://www.corkharbourweather.ie

Latest ConditionsUpdated 8:15:00 AM GMT Monday, Nov 19, 2018
Currently Today's Max Today's Min Today's Average
Temperature 46.4°F8.0°C 47.7°F8.7°C 46.4°F8.0°C 46.6°F8.1°C
Dew Point 43.3°F6.3°C 44.2°F6.8°C 43.0°F6.1°C 43.4°F6.3°C
Winds 9.0 mph E14.5 kmh E 10.0 mph -16.1 kmh - - 7.2 mph 11.6 kmh
Wind Gusts 19.0 mph30.6 kmh 20.0 mph32.2 kmh - -
Humidity 89% 89% 87% 89%
Pressure 30.14 in1020.7 mb 30.18 in1022.0 mb 30.13 in1020.3 mb -
Hour Temp Dew Point Humidity Winds Wind Gusts Pressure Precip Precip Rate Daily Precip Total
08:15 AM 46.4°F8.0°C 43.3°F6.3°C 89% 9.0 mph E14.5 kmh E 19.0 mph30.6 kmh 30.14 in1020.7 mb 0.00 in0.0 mm 0.00 in0.0 mm 0.00 in0.0 mm
08:12 AM 46.4°F8.0°C 43.3°F6.3°C 89% 9.0 mph E14.5 kmh E 19.0 mph30.6 kmh 30.14 in1020.7 mb 0.00 in0.0 mm 0.00 in0.0 mm 0.00 in0.0 mm
08:09 AM 46.4°F8.0°C 43.3°F6.3°C 89% 8.0 mph E12.9 kmh E 19.0 mph30.6 kmh 30.14 in1020.7 mb 0.00 in0.0 mm 0.00 in0.0 mm 0.00 in0.0 mm
08:06 AM 46.4°F8.0°C 43.3°F6.3°C 89% 7.0 mph E11.3 kmh E 15.0 mph24.1 kmh 30.14 in1020.7 mb 0.00 in0.0 mm 0.00 in0.0 mm 0.00 in0.0 mm
08:03 AM 46.4°F8.0°C 43.3°F6.3°C 89% 6.0 mph E9.7 kmh E 15.0 mph24.1 kmh 30.14 in1020.7 mb 0.00 in0.0 mm 0.00 in0.0 mm 0.00 in0.0 mm
08:00 AM 46.4°F8.0°C 43.3°F6.3°C 89% 5.0 mph E8.0 kmh E 14.0 mph22.5 kmh 30.14 in1020.7 mb 0.00 in0.0 mm 0.00 in0.0 mm 0.00 in0.0 mm
07:57 AM 46.4°F8.0°C 43.3°F6.3°C 89% 5.0 mph E8.0 kmh E 13.0 mph20.9 kmh 30.14 in1020.7 mb 0.00 in0.0 mm 0.00 in0.0 mm 0.00 in0.0 mm
07:54 AM 46.4°F8.0°C 43.3°F6.3°C 89% 6.0 mph E9.7 kmh E 13.0 mph20.9 kmh 30.14 in1020.7 mb 0.00 in0.0 mm 0.00 in0.0 mm 0.00 in0.0 mm
07:51 AM 46.4°F8.0°C 43.3°F6.3°C 89% 7.0 mph E11.3 kmh E 18.0 mph29.0 kmh 30.14 in1020.7 mb 0.00 in0.0 mm 0.00 in0.0 mm 0.00 in0.0 mm
07:48 AM 46.4°F8.0°C 43.3°F6.3°C 89% 8.0 mph E12.9 kmh E 18.0 mph29.0 kmh 30.14 in1020.7 mb 0.00 in0.0 mm 0.00 in0.0 mm 0.00 in0.0 mm
07:45 AM 46.4°F8.0°C 43.3°F6.3°C 89% 9.0 mph E14.5 kmh E 18.0 mph29.0 kmh 30.14 in1020.7 mb 0.00 in0.0 mm 0.00 in0.0 mm 0.00 in0.0 mm
07:42 AM 46.4°F8.0°C 43.3°F6.3°C 89% 9.0 mph E14.5 kmh E 18.0 mph29.0 kmh 30.14 in1020.7 mb 0.00 in0.0 mm 0.00 in0.0 mm 0.00 in0.0 mm
07:39 AM 46.4°F8.0°C 43.3°F6.3°C 89% 9.0 mph E14.5 kmh E 18.0 mph29.0 kmh 30.14 in1020.7 mb 0.00 in0.0 mm 0.00 in0.0 mm 0.00 in0.0 mm
07:36 AM 46.4°F8.0°C 43.3°F6.3°C 89% 8.0 mph E12.9 kmh E 17.0 mph27.4 kmh 30.14 in1020.7 mb 0.00 in0.0 mm 0.00 in0.0 mm 0.00 in0.0 mm
07:33 AM 46.4°F8.0°C 43.3°F6.3°C 89% 7.0 mph E11.3 kmh E 15.0 mph24.1 kmh 30.14 in1020.7 mb 0.00 in0.0 mm 0.00 in0.0 mm 0.00 in0.0 mm
07:30 AM 46.4°F8.0°C 43.3°F6.3°C 89% 7.0 mph E11.3 kmh E 14.0 mph22.5 kmh 30.14 in1020.7 mb 0.00 in0.0 mm 0.00 in0.0 mm 0.00 in0.0 mm
07:27 AM 46.4°F8.0°C 43.3°F6.3°C 89% 8.0 mph E12.9 kmh E 20.0 mph32.2 kmh 30.14 in1020.7 mb 0.00 in0.0 mm 0.00 in0.0 mm 0.00 in0.0 mm
07:24 AM 46.4°F8.0°C 43.3°F6.3°C 89% 9.0 mph E14.5 kmh E 20.0 mph32.2 kmh 30.14 in1020.7 mb 0.00 in0.0 mm 0.00 in0.0 mm 0.00 in0.0 mm
07:21 AM 46.4°F8.0°C 43.3°F6.3°C 89% 9.0 mph E14.5 kmh E 20.0 mph32.2 kmh 30.14 in1020.7 mb 0.00 in0.0 mm 0.00 in0.0 mm 0.00 in0.0 mm
07:18 AM 46.4°F8.0°C 43.3°F6.3°C 89% 10.0 mph E16.1 kmh E 20.0 mph32.2 kmh 30.14 in1020.7 mb 0.00 in0.0 mm 0.00 in0.0 mm 0.00 in0.0 mm
07:15 AM 46.4°F8.0°C 43.3°F6.3°C 89% 9.0 mph E14.5 kmh E 16.0 mph25.7 kmh 30.14 in1020.7 mb 0.00 in0.0 mm 0.00 in0.0 mm 0.00 in0.0 mm
07:12 AM 46.4°F8.0°C 43.3°F6.3°C 89% 9.0 mph E14.5 kmh E 17.0 mph27.4 kmh 30.13 in1020.3 mb 0.00 in0.0 mm 0.00 in0.0 mm 0.00 in0.0 mm
07:09 AM 46.4°F8.0°C 43.3°F6.3°C 89% 9.0 mph E14.5 kmh E 17.0 mph27.4 kmh 30.14 in1020.7 mb 0.00 in0.0 mm 0.00 in0.0 mm 0.00 in0.0 mm
07:06 AM 46.4°F8.0°C 43.3°F6.3°C 89% 9.0 mph E14.5 kmh E 17.0 mph27.4 kmh 30.13 in1020.3 mb 0.00 in0.0 mm 0.00 in0.0 mm 0.00 in0.0 mm
07:03 AM 46.4°F8.0°C 43.3°F6.3°C 89% 8.0 mph E12.9 kmh E 17.0 mph27.4 kmh 30.14 in1020.7 mb 0.00 in0.0 mm 0.00 in0.0 mm 0.00 in0.0 mm
07:00 AM 46.4°F8.0°C 43.3°F6.3°C 89% 9.0 mph E14.5 kmh E 15.0 mph24.1 kmh 30.14 in1020.7 mb 0.00 in0.0 mm 0.00 in0.0 mm 0.00 in0.0 mm
06:57 AM 46.4°F8.0°C 43.3°F6.3°C 89% 9.0 mph E14.5 kmh E 16.0 mph25.7 kmh 30.14 in1020.7 mb 0.00 in0.0 mm 0.00 in0.0 mm 0.00 in0.0 mm
06:54 AM 46.4°F8.0°C 43.3°F6.3°C 89% 8.0 mph E12.9 kmh E 16.0 mph25.7 kmh 30.14 in1020.7 mb 0.00 in0.0 mm 0.00 in0.0 mm 0.00 in0.0 mm
06:51 AM 46.4°F8.0°C 43.3°F6.3°C 89% 8.0 mph E12.9 kmh E 16.0 mph25.7 kmh 30.14 in1020.7 mb 0.00 in0.0 mm 0.00 in0.0 mm 0.00 in0.0 mm
06:48 AM 46.4°F8.0°C 43.3°F6.3°C 89% 8.0 mph E12.9 kmh E 16.0 mph25.7 kmh 30.14 in1020.7 mb 0.00 in0.0 mm 0.00 in0.0 mm 0.00 in0.0 mm
06:45 AM 46.4°F8.0°C 43.3°F6.3°C 89% 8.0 mph E12.9 kmh E 16.0 mph25.7 kmh 30.13 in1020.3 mb 0.00 in0.0 mm 0.00 in0.0 mm 0.00 in0.0 mm
06:42 AM 46.4°F8.0°C 43.3°F6.3°C 89% 8.0 mph E12.9 kmh E 15.0 mph24.1 kmh 30.13 in1020.3 mb 0.00 in0.0 mm 0.00 in0.0 mm 0.00 in0.0 mm
06:39 AM 46.4°F8.0°C 43.3°F6.3°C 89% 8.0 mph E12.9 kmh E 17.0 mph27.4 kmh 30.13 in1020.3 mb 0.00 in0.0 mm 0.00 in0.0 mm 0.00 in0.0 mm
06:36 AM 46.4°F8.0°C 43.3°F6.3°C 89% 8.0 mph E12.9 kmh E 17.0 mph27.4 kmh 30.13 in1020.3 mb 0.00 in0.0 mm 0.00 in0.0 mm 0.00 in0.0 mm
06:33 AM 46.4°F8.0°C 43.3°F6.3°C 89% 8.0 mph E12.9 kmh E 17.0 mph27.4 kmh 30.13 in1020.3 mb 0.00 in0.0 mm 0.00 in0.0 mm 0.00 in0.0 mm
06:30 AM 46.4°F8.0°C 43.3°F6.3°C 89% 9.0 mph ENE14.5 kmh ENE 17.0 mph27.4 kmh 30.14 in1020.7 mb 0.00 in0.0 mm 0.00 in0.0 mm 0.00 in0.0 mm
06:27 AM 46.4°F8.0°C 43.3°F6.3°C 89% 8.0 mph ENE12.9 kmh ENE 15.0 mph24.1 kmh 30.14 in1020.7 mb 0.00 in0.0 mm 0.00 in0.0 mm 0.00 in0.0 mm
06:24 AM 46.4°F8.0°C 43.3°F6.3°C 89% 7.0 mph E11.3 kmh E 15.0 mph24.1 kmh 30.14 in1020.7 mb 0.00 in0.0 mm 0.00 in0.0 mm 0.00 in0.0 mm
06:21 AM 46.4°F8.0°C 43.3°F6.3°C 89% 6.0 mph E9.7 kmh E 15.0 mph24.1 kmh 30.14 in1020.7 mb 0.00 in0.0 mm 0.00 in0.0 mm 0.00 in0.0 mm
06:18 AM 46.4°F8.0°C 43.3°F6.3°C 89% 5.0 mph E8.0 kmh E 13.0 mph20.9 kmh 30.14 in1020.7 mb 0.00 in0.0 mm 0.00 in0.0 mm 0.00 in0.0 mm
06:15 AM 46.4°F8.0°C 43.3°F6.3°C 89% 6.0 mph E9.7 kmh E 13.0 mph20.9 kmh 30.14 in1020.7 mb 0.00 in0.0 mm 0.00 in0.0 mm 0.00 in0.0 mm
06:12 AM 46.4°F8.0°C 43.3°F6.3°C 89% 6.0 mph E9.7 kmh E 13.0 mph20.9 kmh 30.14 in1020.7 mb 0.00 in0.0 mm 0.00 in0.0 mm 0.00 in0.0 mm
06:09 AM 46.4°F8.0°C 43.3°F6.3°C 89% 6.0 mph E9.7 kmh E 13.0 mph20.9 kmh 30.14 in1020.7 mb 0.00 in0.0 mm 0.00 in0.0 mm 0.00 in0.0 mm
06:06 AM 46.4°F8.0°C 43.3°F6.3°C 89% 6.0 mph E9.7 kmh E 13.0 mph20.9 kmh 30.14 in1020.7 mb 0.00 in0.0 mm 0.00 in0.0 mm 0.00 in0.0 mm
06:03 AM 46.4°F8.0°C 43.3°F6.3°C 89% 6.0 mph E9.7 kmh E 16.0 mph25.7 kmh 30.14 in1020.7 mb 0.00 in0.0 mm 0.00 in0.0 mm 0.00 in0.0 mm
06:00 AM 46.4°F8.0°C 43.3°F6.3°C 89% 6.0 mph E9.7 kmh E 16.0 mph25.7 kmh 30.14 in1020.7 mb 0.00 in0.0 mm 0.00 in0.0 mm 0.00 in0.0 mm
05:57 AM 46.4°F8.0°C 43.3°F6.3°C 89% 7.0 mph E11.3 kmh E 16.0 mph25.7 kmh 30.14 in1020.7 mb 0.00 in0.0 mm 0.00 in0.0 mm 0.00 in0.0 mm
05:54 AM 46.4°F8.0°C 43.3°F6.3°C 89% 7.0 mph E11.3 kmh E 13.0 mph20.9 kmh 30.14 in1020.7 mb 0.00 in0.0 mm 0.00 in0.0 mm 0.00 in0.0 mm
05:51 AM 46.4°F8.0°C 43.3°F6.3°C 89% 6.0 mph E9.7 kmh E 13.0 mph20.9 kmh 30.14 in1020.7 mb 0.00 in0.0 mm 0.00 in0.0 mm 0.00 in0.0 mm
05:48 AM 46.4°F8.0°C 43.3°F6.3°C 89% 5.0 mph E8.0 kmh E 13.0 mph20.9 kmh 30.14 in1020.7 mb 0.00 in0.0 mm 0.00 in0.0 mm 0.00 in0.0 mm
05:45 AM 46.4°F8.0°C 43.3°F6.3°C 89% 4.0 mph E6.4 kmh E 13.0 mph20.9 kmh 30.14 in1020.7 mb 0.00 in0.0 mm 0.00 in0.0 mm 0.00 in0.0 mm
05:42 AM 46.4°F8.0°C 43.3°F6.3°C 89% 5.0 mph E8.0 kmh E 13.0 mph20.9 kmh 30.14 in1020.7 mb 0.00 in0.0 mm 0.00 in0.0 mm 0.00 in0.0 mm
05:39 AM 46.4°F8.0°C 43.3°F6.3°C 89% 5.0 mph ENE8.0 kmh ENE 13.0 mph20.9 kmh 30.14 in1020.7 mb 0.00 in0.0 mm 0.00 in0.0 mm 0.00 in0.0 mm
05:36 AM 46.4°F8.0°C 43.3°F6.3°C 89% 5.0 mph ENE8.0 kmh ENE 13.0 mph20.9 kmh 30.14 in1020.7 mb 0.00 in0.0 mm 0.00 in0.0 mm 0.00 in0.0 mm
05:33 AM 46.4°F8.0°C 43.3°F6.3°C 89% 5.0 mph ENE8.0 kmh ENE 12.0 mph19.3 kmh 30.14 in1020.7 mb 0.00 in0.0 mm 0.00 in0.0 mm 0.00 in0.0 mm
05:30 AM 46.4°F8.0°C 43.3°F6.3°C 89% 6.0 mph ENE9.7 kmh ENE 15.0 mph24.1 kmh 30.14 in1020.7 mb 0.00 in0.0 mm 0.00 in0.0 mm 0.00 in0.0 mm
05:27 AM 46.4°F8.0°C 43.3°F6.3°C 89% 6.0 mph E9.7 kmh E 15.0 mph24.1 kmh 30.14 in1020.7 mb 0.00 in0.0 mm 0.00 in0.0 mm 0.00 in0.0 mm
05:24 AM 46.4°F8.0°C 43.3°F6.3°C 89% 7.0 mph E11.3 kmh E 17.0 mph27.4 kmh 30.14 in1020.7 mb 0.00 in0.0 mm 0.00 in0.0 mm 0.00 in0.0 mm
05:21 AM 46.4°F8.0°C 43.3°F6.3°C 89% 7.0 mph E11.3 kmh E 17.0 mph27.4 kmh 30.13 in1020.3 mb 0.00 in0.0 mm 0.00 in0.0 mm 0.00 in0.0 mm
05:18 AM 46.4°F8.0°C 43.3°F6.3°C 89% 7.0 mph E11.3 kmh E 17.0 mph27.4 kmh 30.13 in1020.3 mb 0.00 in0.0 mm 0.00 in0.0 mm 0.00 in0.0 mm
05:15 AM 46.4°F8.0°C 43.3°F6.3°C 89% 7.0 mph E11.3 kmh E 15.0 mph24.1 kmh 30.13 in1020.3 mb 0.00 in0.0 mm 0.00 in0.0 mm 0.00 in0.0 mm
05:12 AM 46.4°F8.0°C 43.3°F6.3°C 89% 7.0 mph E11.3 kmh E 15.0 mph24.1 kmh 30.13 in1020.3 mb 0.00 in0.0 mm 0.00 in0.0 mm 0.00 in0.0 mm
05:09 AM 46.4°F8.0°C 43.3°F6.3°C 89% 8.0 mph E12.9 kmh E 16.0 mph25.7 kmh 30.13 in1020.3 mb 0.00 in0.0 mm 0.00 in0.0 mm 0.00 in0.0 mm
05:06 AM 46.4°F8.0°C 43.3°F6.3°C 89% 7.0 mph E11.3 kmh E 16.0 mph25.7 kmh 30.13 in1020.3 mb 0.00 in0.0 mm 0.00 in0.0 mm 0.00 in0.0 mm
05:03 AM 46.4°F8.0°C 43.3°F6.3°C 89% 7.0 mph E11.3 kmh E 16.0 mph25.7 kmh 30.13 in1020.3 mb 0.00 in0.0 mm 0.00 in0.0 mm 0.00 in0.0 mm
05:00 AM 46.4°F8.0°C 43.3°F6.3°C 89% 7.0 mph ENE11.3 kmh ENE 16.0 mph25.7 kmh 30.13 in1020.3 mb 0.00 in0.0 mm 0.00 in0.0 mm 0.00 in0.0 mm
04:57 AM 46.4°F8.0°C 43.3°F6.3°C 89% 6.0 mph ENE9.7 kmh ENE 14.0 mph22.5 kmh 30.13 in1020.3 mb 0.00 in0.0 mm 0.00 in0.0 mm 0.00 in0.0 mm
04:54 AM 46.4°F8.0°C 43.3°F6.3°C 89% 6.0 mph ENE9.7 kmh ENE 14.0 mph22.5 kmh 30.14 in1020.7 mb 0.00 in0.0 mm 0.00 in0.0 mm 0.00 in0.0 mm
04:51 AM 46.4°F8.0°C 43.3°F6.3°C 89% 6.0 mph E9.7 kmh E 14.0 mph22.5 kmh 30.14 in1020.7 mb 0.00 in0.0 mm 0.00 in0.0 mm 0.00 in0.0 mm
04:48 AM 46.4°F8.0°C 43.3°F6.3°C 89% 7.0 mph E11.3 kmh E 14.0 mph22.5 kmh 30.13 in1020.3 mb 0.00 in0.0 mm 0.00 in0.0 mm 0.00 in0.0 mm
04:45 AM 46.4°F8.0°C 43.3°F6.3°C 89% 7.0 mph E11.3 kmh E 15.0 mph24.1 kmh 30.13 in1020.3 mb 0.00 in0.0 mm 0.00 in0.0 mm 0.00 in0.0 mm
04:42 AM 46.4°F8.0°C 43.3°F6.3°C 89% 8.0 mph E12.9 kmh E 16.0 mph25.7 kmh 30.13 in1020.3 mb 0.00 in0.0 mm 0.00 in0.0 mm 0.00 in0.0 mm
04:39 AM 46.4°F8.0°C 43.3°F6.3°C 89% 9.0 mph E14.5 kmh E 16.0 mph25.7 kmh 30.13 in1020.3 mb 0.00 in0.0 mm 0.00 in0.0 mm 0.00 in0.0 mm
04:36 AM 46.4°F8.0°C 43.3°F6.3°C 89% 9.0 mph E14.5 kmh E 16.0 mph25.7 kmh 30.13 in1020.3 mb 0.00 in0.0 mm 0.00 in0.0 mm 0.00 in0.0 mm
04:33 AM 46.4°F8.0°C 43.3°F6.3°C 89% 8.0 mph E12.9 kmh E 14.0 mph22.5 kmh 30.13 in1020.3 mb 0.00 in0.0 mm 0.00 in0.0 mm 0.00 in0.0 mm
04:30 AM 46.4°F8.0°C 43.3°F6.3°C 89% 6.0 mph E9.7 kmh E 14.0 mph22.5 kmh 30.13 in1020.3 mb 0.00 in0.0 mm 0.00 in0.0 mm 0.00 in0.0 mm
04:27 AM 46.4°F8.0°C 43.3°F6.3°C 89% 6.0 mph E9.7 kmh E 14.0 mph22.5 kmh 30.14 in1020.7 mb 0.00 in0.0 mm 0.00 in0.0 mm 0.00 in0.0 mm
04:24 AM 46.4°F8.0°C 43.3°F6.3°C 89% 6.0 mph E9.7 kmh E 12.0 mph19.3 kmh 30.14 in1020.7 mb 0.00 in0.0 mm 0.00 in0.0 mm 0.00 in0.0 mm
04:21 AM 46.4°F8.0°C 43.3°F6.3°C 89% 6.0 mph E9.7 kmh E 14.0 mph22.5 kmh 30.14 in1020.7 mb 0.00 in0.0 mm 0.00 in0.0 mm 0.00 in0.0 mm
04:18 AM 46.4°F8.0°C 43.3°F6.3°C 89% 7.0 mph E11.3 kmh E 14.0 mph22.5 kmh 30.14 in1020.7 mb 0.00 in0.0 mm 0.00 in0.0 mm 0.00 in0.0 mm
04:15 AM 46.4°F8.0°C 43.3°F6.3°C 89% 7.0 mph E11.3 kmh E 19.0 mph30.6 kmh 30.14 in1020.7 mb 0.00 in0.0 mm 0.00 in0.0 mm 0.00 in0.0 mm
04:12 AM 46.4°F8.0°C 43.3°F6.3°C 89% 8.0 mph E12.9 kmh E 19.0 mph30.6 kmh 30.14 in1020.7 mb 0.00 in0.0 mm 0.00 in0.0 mm 0.00 in0.0 mm
04:09 AM 46.4°F8.0°C 43.3°F6.3°C 89% 9.0 mph E14.5 kmh E 19.0 mph30.6 kmh 30.14 in1020.7 mb 0.00 in0.0 mm 0.00 in0.0 mm 0.00 in0.0 mm
04:06 AM 46.4°F8.0°C 43.3°F6.3°C 89% 9.0 mph E14.5 kmh E 18.0 mph29.0 kmh 30.14 in1020.7 mb 0.00 in0.0 mm 0.00 in0.0 mm 0.00 in0.0 mm
04:03 AM 46.4°F8.0°C 43.3°F6.3°C 89% 9.0 mph E14.5 kmh E 18.0 mph29.0 kmh 30.14 in1020.7 mb 0.00 in0.0 mm 0.00 in0.0 mm 0.00 in0.0 mm
04:00 AM 46.4°F8.0°C 43.3°F6.3°C 89% 9.0 mph E14.5 kmh E 15.0 mph24.1 kmh 30.14 in1020.7 mb 0.00 in0.0 mm 0.00 in0.0 mm 0.00 in0.0 mm
03:57 AM 46.4°F8.0°C 43.3°F6.3°C 89% 9.0 mph E14.5 kmh E 15.0 mph24.1 kmh 30.14 in1020.7 mb 0.00 in0.0 mm 0.00 in0.0 mm 0.00 in0.0 mm
03:54 AM 46.4°F8.0°C 43.3°F6.3°C 89% 9.0 mph E14.5 kmh E 15.0 mph24.1 kmh 30.14 in1020.7 mb 0.00 in0.0 mm 0.00 in0.0 mm 0.00 in0.0 mm
03:51 AM 46.4°F8.0°C 43.3°F6.3°C 89% 9.0 mph E14.5 kmh E 16.0 mph25.7 kmh 30.14 in1020.7 mb 0.00 in0.0 mm 0.00 in0.0 mm 0.00 in0.0 mm
03:48 AM 46.4°F8.0°C 43.3°F6.3°C 89% 9.0 mph E14.5 kmh E 16.0 mph25.7 kmh 30.14 in1020.7 mb 0.00 in0.0 mm 0.00 in0.0 mm 0.00 in0.0 mm
03:45 AM 46.4°F8.0°C 43.3°F6.3°C 89% 9.0 mph E14.5 kmh E 16.0 mph25.7 kmh 30.14 in1020.7 mb 0.00 in0.0 mm 0.00 in0.0 mm 0.00 in0.0 mm
03:42 AM 46.4°F8.0°C 43.3°F6.3°C 89% 8.0 mph E12.9 kmh E 16.0 mph25.7 kmh 30.14 in1020.7 mb 0.00 in0.0 mm 0.00 in0.0 mm 0.00 in0.0 mm
03:39 AM 46.4°F8.0°C 43.3°F6.3°C 89% 8.0 mph E12.9 kmh E 16.0 mph25.7 kmh 30.14 in1020.7 mb 0.00 in0.0 mm 0.00 in0.0 mm 0.00 in0.0 mm
03:36 AM 46.4°F8.0°C 43.3°F6.3°C 89% 8.0 mph E12.9 kmh E 16.0 mph25.7 kmh 30.14 in1020.7 mb 0.00 in0.0 mm 0.00 in0.0 mm 0.00 in0.0 mm
03:33 AM 46.4°F8.0°C 43.3°F6.3°C 89% 9.0 mph E14.5 kmh E 18.0 mph29.0 kmh 30.14 in1020.7 mb 0.00 in0.0 mm 0.00 in0.0 mm 0.00 in0.0 mm
03:30 AM 46.4°F8.0°C 43.3°F6.3°C 89% 8.0 mph E12.9 kmh E 18.0 mph29.0 kmh 30.14 in1020.7 mb 0.00 in0.0 mm 0.00 in0.0 mm 0.00 in0.0 mm
03:27 AM 46.4°F8.0°C 43.3°F6.3°C 89% 8.0 mph E12.9 kmh E 18.0 mph29.0 kmh 30.14 in1020.7 mb 0.00 in0.0 mm 0.00 in0.0 mm 0.00 in0.0 mm
03:24 AM 46.4°F8.0°C 43.3°F6.3°C 89% 7.0 mph E11.3 kmh E 15.0 mph24.1 kmh 30.14 in1020.7 mb 0.00 in0.0 mm 0.00 in0.0 mm 0.00 in0.0 mm
03:21 AM 46.4°F8.0°C 43.3°F6.3°C 89% 6.0 mph E9.7 kmh E 15.0 mph24.1 kmh 30.14 in1020.7 mb 0.00 in0.0 mm 0.00 in0.0 mm 0.00 in0.0 mm
03:18 AM 46.4°F8.0°C 43.3°F6.3°C 89% 6.0 mph E9.7 kmh E 16.0 mph25.7 kmh 30.14 in1020.7 mb 0.00 in0.0 mm 0.00 in0.0 mm 0.00 in0.0 mm
03:15 AM 46.4°F8.0°C 43.3°F6.3°C 89% 6.0 mph E9.7 kmh E 16.0 mph25.7 kmh 30.14 in1020.7 mb 0.00 in0.0 mm 0.00 in0.0 mm 0.00 in0.0 mm
03:12 AM 46.4°F8.0°C 43.3°F6.3°C 89% 7.0 mph ENE11.3 kmh ENE 17.0 mph27.4 kmh 30.14 in1020.7 mb 0.00 in0.0 mm 0.00 in0.0 mm 0.00 in0.0 mm
03:09 AM 46.4°F8.0°C 43.3°F6.3°C 89% 7.0 mph ENE11.3 kmh ENE 17.0 mph27.4 kmh 30.14 in1020.7 mb 0.00 in0.0 mm 0.00 in0.0 mm 0.00 in0.0 mm
03:06 AM 46.4°F8.0°C 43.3°F6.3°C 89% 7.0 mph ENE11.3 kmh ENE 17.0 mph27.4 kmh 30.14 in1020.7 mb 0.00 in0.0 mm 0.00 in0.0 mm 0.00 in0.0 mm
03:03 AM 46.4°F8.0°C 43.3°F6.3°C 89% 7.0 mph ENE11.3 kmh ENE 17.0 mph27.4 kmh 30.14 in1020.7 mb 0.00 in0.0 mm 0.00 in0.0 mm 0.00 in0.0 mm
03:00 AM 46.4°F8.0°C 43.3°F6.3°C 89% 7.0 mph ENE11.3 kmh ENE 16.0 mph25.7 kmh 30.14 in1020.7 mb 0.00 in0.0 mm 0.00 in0.0 mm 0.00 in0.0 mm
02:57 AM 46.4°F8.0°C 43.3°F6.3°C 89% 7.0 mph ENE11.3 kmh ENE 16.0 mph25.7 kmh 30.14 in1020.7 mb 0.00 in0.0 mm 0.00 in0.0 mm 0.00 in0.0 mm
02:54 AM 46.4°F8.0°C 43.3°F6.3°C 89% 8.0 mph E12.9 kmh E 13.0 mph20.9 kmh 30.15 in1021.0 mb 0.00 in0.0 mm 0.00 in0.0 mm 0.00 in0.0 mm
02:51 AM 46.4°F8.0°C 43.3°F6.3°C 89% 7.0 mph E11.3 kmh E 13.0 mph20.9 kmh 30.15 in1021.0 mb 0.00 in0.0 mm 0.00 in0.0 mm 0.00 in0.0 mm
02:48 AM 46.4°F8.0°C 43.3°F6.3°C 89% 7.0 mph E11.3 kmh E 13.0 mph20.9 kmh 30.15 in1021.0 mb 0.00 in0.0 mm 0.00 in0.0 mm 0.00 in0.0 mm
02:45 AM 46.4°F8.0°C 43.3°F6.3°C 89% 8.0 mph E12.9 kmh E 16.0 mph25.7 kmh 30.15 in1021.0 mb 0.00 in0.0 mm 0.00 in0.0 mm 0.00 in0.0 mm
02:42 AM 46.4°F8.0°C 43.3°F6.3°C 89% 7.0 mph ENE11.3 kmh ENE 16.0 mph25.7 kmh 30.15 in1021.0 mb 0.00 in0.0 mm 0.00 in0.0 mm 0.00 in0.0 mm
02:39 AM 46.4°F8.0°C 43.3°F6.3°C 89% 7.0 mph ENE11.3 kmh ENE 16.0 mph25.7 kmh 30.16 in1021.3 mb 0.00 in0.0 mm 0.00 in0.0 mm 0.00 in0.0 mm
02:36 AM 46.4°F8.0°C 43.3°F6.3°C 89% 7.0 mph ENE11.3 kmh ENE 17.0 mph27.4 kmh 30.16 in1021.3 mb 0.00 in0.0 mm 0.00 in0.0 mm 0.00 in0.0 mm
02:33 AM 46.4°F8.0°C 43.3°F6.3°C 89% 7.0 mph ENE11.3 kmh ENE 17.0 mph27.4 kmh 30.16 in1021.3 mb 0.00 in0.0 mm 0.00 in0.0 mm 0.00 in0.0 mm
02:30 AM 46.4°F8.0°C 43.3°F6.3°C 89% 7.0 mph ENE11.3 kmh ENE 19.0 mph30.6 kmh 30.16 in1021.3 mb 0.00 in0.0 mm 0.00 in0.0 mm 0.00 in0.0 mm
02:27 AM 46.4°F8.0°C 43.3°F6.3°C 89% 7.0 mph ENE11.3 kmh ENE 19.0 mph30.6 kmh 30.16 in1021.3 mb 0.00 in0.0 mm 0.00 in0.0 mm 0.00 in0.0 mm
02:24 AM 46.4°F8.0°C 43.3°F6.3°C 89% 8.0 mph ENE12.9 kmh ENE 19.0 mph30.6 kmh 30.16 in1021.3 mb 0.00 in0.0 mm 0.00 in0.0 mm 0.00 in0.0 mm
02:21 AM 46.4°F8.0°C 43.3°F6.3°C 89% 8.0 mph ENE12.9 kmh ENE 19.0 mph30.6 kmh 30.16 in1021.3 mb 0.00 in0.0 mm 0.00 in0.0 mm 0.00 in0.0 mm
02:18 AM 46.4°F8.0°C 43.3°F6.3°C 89% 8.0 mph ENE12.9 kmh ENE 18.0 mph29.0 kmh 30.16 in1021.3 mb 0.00 in0.0 mm 0.00 in0.0 mm 0.00 in0.0 mm
02:15 AM 46.4°F8.0°C 43.3°F6.3°C 89% 8.0 mph ENE12.9 kmh ENE 15.0 mph24.1 kmh 30.16 in1021.3 mb 0.00 in0.0 mm 0.00 in0.0 mm 0.00 in0.0 mm
02:12 AM 46.4°F8.0°C 43.3°F6.3°C 89% 8.0 mph ENE12.9 kmh ENE 15.0 mph24.1 kmh 30.16 in1021.3 mb 0.00 in0.0 mm 0.00 in0.0 mm 0.00 in0.0 mm
02:09 AM 46.4°F8.0°C 43.3°F6.3°C 89% 8.0 mph ENE12.9 kmh ENE 15.0 mph24.1 kmh 30.16 in1021.3 mb 0.00 in0.0 mm 0.00 in0.0 mm 0.00 in0.0 mm
02:06 AM 46.4°F8.0°C 43.3°F6.3°C 89% 8.0 mph ENE12.9 kmh ENE 17.0 mph27.4 kmh 30.16 in1021.3 mb 0.00 in0.0 mm 0.00 in0.0 mm 0.00 in0.0 mm
02:03 AM 46.4°F8.0°C 43.3°F6.3°C 89% 7.0 mph ENE11.3 kmh ENE 17.0 mph27.4 kmh 30.16 in1021.3 mb 0.00 in0.0 mm 0.00 in0.0 mm 0.00 in0.0 mm
02:00 AM 46.4°F8.0°C 43.3°F6.3°C 89% 7.0 mph ENE11.3 kmh ENE 17.0 mph27.4 kmh 30.16 in1021.3 mb 0.00 in0.0 mm 0.00 in0.0 mm 0.00 in0.0 mm
01:57 AM 46.6°F8.1°C 43.5°F6.4°C 89% 8.0 mph ENE12.9 kmh ENE 17.0 mph27.4 kmh 30.16 in1021.3 mb 0.00 in0.0 mm 0.00 in0.0 mm 0.00 in0.0 mm
01:54 AM 46.6°F8.1°C 43.5°F6.4°C 89% 8.0 mph ENE12.9 kmh ENE 17.0 mph27.4 kmh 30.16 in1021.3 mb 0.00 in0.0 mm 0.00 in0.0 mm 0.00 in0.0 mm
01:51 AM 46.8°F8.2°C 43.7°F6.5°C 89% 7.0 mph ENE11.3 kmh ENE 17.0 mph27.4 kmh 30.16 in1021.3 mb 0.00 in0.0 mm 0.00 in0.0 mm 0.00 in0.0 mm
01:48 AM 46.8°F8.2°C 43.3°F6.3°C 88% 7.0 mph ENE11.3 kmh ENE 17.0 mph27.4 kmh 30.16 in1021.3 mb 0.00 in0.0 mm 0.00 in0.0 mm 0.00 in0.0 mm
01:45 AM 46.8°F8.2°C 43.5°F6.4°C 88% 6.0 mph ENE9.7 kmh ENE 13.0 mph20.9 kmh 30.16 in1021.3 mb 0.00 in0.0 mm 0.00 in0.0 mm 0.00 in0.0 mm
01:42 AM 47.1°F8.4°C 43.7°F6.5°C 88% 5.0 mph ENE8.0 kmh ENE 12.0 mph19.3 kmh 30.17 in1021.7 mb 0.00 in0.0 mm 0.00 in0.0 mm 0.00 in0.0 mm
01:39 AM 47.3°F8.5°C 43.9°F6.6°C 88% 5.0 mph ENE8.0 kmh ENE 10.0 mph16.1 kmh 30.17 in1021.7 mb 0.00 in0.0 mm 0.00 in0.0 mm 0.00 in0.0 mm
01:36 AM 47.5°F8.6°C 43.7°F6.5°C 87% 5.0 mph ENE8.0 kmh ENE 10.0 mph16.1 kmh 30.17 in1021.7 mb 0.00 in0.0 mm 0.00 in0.0 mm 0.00 in0.0 mm
01:33 AM 47.7°F8.7°C 43.9°F6.6°C 87% 4.0 mph ENE6.4 kmh ENE 10.0 mph16.1 kmh 30.17 in1021.7 mb 0.00 in0.0 mm 0.00 in0.0 mm 0.00 in0.0 mm
01:30 AM 47.7°F8.7°C 44.2°F6.8°C 88% 5.0 mph E8.0 kmh E 13.0 mph20.9 kmh 30.17 in1021.7 mb 0.00 in0.0 mm 0.00 in0.0 mm 0.00 in0.0 mm
01:27 AM 47.7°F8.7°C 44.2°F6.8°C 88% 6.0 mph E9.7 kmh E 13.0 mph20.9 kmh 30.17 in1021.7 mb 0.00 in0.0 mm 0.00 in0.0 mm 0.00 in0.0 mm
01:24 AM 47.5°F8.6°C 44.1°F6.7°C 88% 6.0 mph E9.7 kmh E 13.0 mph20.9 kmh 30.17 in1021.7 mb 0.00 in0.0 mm 0.00 in0.0 mm 0.00 in0.0 mm
01:21 AM 47.5°F8.6°C 43.9°F6.6°C 87% 5.0 mph E8.0 kmh E 13.0 mph20.9 kmh 30.17 in1021.7 mb 0.00 in0.0 mm 0.00 in0.0 mm 0.00 in0.0 mm
01:18 AM 47.5°F8.6°C 43.9°F6.6°C 87% 5.0 mph ENE8.0 kmh ENE 13.0 mph20.9 kmh 30.17 in1021.7 mb 0.00 in0.0 mm 0.00 in0.0 mm 0.00 in0.0 mm
01:15 AM 47.5°F8.6°C 43.9°F6.6°C 87% 6.0 mph ENE9.7 kmh ENE 14.0 mph22.5 kmh 30.17 in1021.7 mb 0.00 in0.0 mm 0.00 in0.0 mm 0.00 in0.0 mm
01:12 AM 47.5°F8.6°C 43.9°F6.6°C 87% 6.0 mph ENE9.7 kmh ENE 16.0 mph25.7 kmh 30.17 in1021.7 mb 0.00 in0.0 mm 0.00 in0.0 mm 0.00 in0.0 mm
01:09 AM 47.5°F8.6°C 43.9°F6.6°C 87% 6.0 mph ENE9.7 kmh ENE 16.0 mph25.7 kmh 30.17 in1021.7 mb 0.00 in0.0 mm 0.00 in0.0 mm 0.00 in0.0 mm
01:06 AM 47.5°F8.6°C 43.9°F6.6°C 87% 6.0 mph ENE9.7 kmh ENE 16.0 mph25.7 kmh 30.18 in1022.0 mb 0.00 in0.0 mm 0.00 in0.0 mm 0.00 in0.0 mm
01:03 AM 47.5°F8.6°C 43.9°F6.6°C 87% 7.0 mph ENE11.3 kmh ENE 13.0 mph20.9 kmh 30.18 in1022.0 mb 0.00 in0.0 mm 0.00 in0.0 mm 0.00 in0.0 mm
01:00 AM 47.5°F8.6°C 43.9°F6.6°C 87% 7.0 mph ENE11.3 kmh ENE 13.0 mph20.9 kmh 30.17 in1021.7 mb 0.00 in0.0 mm 0.00 in0.0 mm 0.00 in0.0 mm
12:57 AM 47.5°F8.6°C 43.7°F6.5°C 87% 7.0 mph ENE11.3 kmh ENE 15.0 mph24.1 kmh 30.17 in1021.7 mb 0.00 in0.0 mm 0.00 in0.0 mm 0.00 in0.0 mm
12:54 AM 47.5°F8.6°C 43.9°F6.6°C 87% 7.0 mph ENE11.3 kmh ENE 15.0 mph24.1 kmh 30.18 in1022.0 mb 0.00 in0.0 mm 0.00 in0.0 mm 0.00 in0.0 mm
12:51 AM 47.7°F8.7°C 43.9°F6.6°C 87% 7.0 mph ENE11.3 kmh ENE 15.0 mph24.1 kmh 30.18 in1022.0 mb 0.00 in0.0 mm 0.00 in0.0 mm 0.00 in0.0 mm
12:48 AM 47.7°F8.7°C 43.9°F6.6°C 87% 7.0 mph E11.3 kmh E 14.0 mph22.5 kmh 30.18 in1022.0 mb 0.00 in0.0 mm 0.00 in0.0 mm 0.00 in0.0 mm
12:45 AM 47.7°F8.7°C 44.1°F6.7°C 87% 6.0 mph E9.7 kmh E 14.0 mph22.5 kmh 30.18 in1022.0 mb 0.00 in0.0 mm 0.00 in0.0 mm 0.00 in0.0 mm
12:42 AM 47.7°F8.7°C 44.1°F6.7°C 87% 6.0 mph E9.7 kmh E 14.0 mph22.5 kmh 30.18 in1022.0 mb 0.00 in0.0 mm 0.00 in0.0 mm 0.00 in0.0 mm
12:39 AM 47.7°F8.7°C 43.9°F6.6°C 87% 7.0 mph E11.3 kmh E 15.0 mph24.1 kmh 30.18 in1022.0 mb 0.00 in0.0 mm 0.00 in0.0 mm 0.00 in0.0 mm
12:36 AM 47.7°F8.7°C 43.9°F6.6°C 87% 7.0 mph E11.3 kmh E 15.0 mph24.1 kmh 30.18 in1022.0 mb 0.00 in0.0 mm 0.00 in0.0 mm 0.00 in0.0 mm
12:33 AM 47.5°F8.6°C 43.9°F6.6°C 87% 8.0 mph ENE12.9 kmh ENE 15.0 mph24.1 kmh 30.18 in1022.0 mb 0.00 in0.0 mm 0.00 in0.0 mm 0.00 in0.0 mm
12:30 AM 47.5°F8.6°C 44.1°F6.7°C 88% 7.0 mph ENE11.3 kmh ENE 15.0 mph24.1 kmh 30.18 in1022.0 mb 0.00 in0.0 mm 0.00 in0.0 mm 0.00 in0.0 mm
12:27 AM 47.5°F8.6°C 44.1°F6.7°C 88% 7.0 mph ENE11.3 kmh ENE 14.0 mph22.5 kmh 30.18 in1022.0 mb 0.00 in0.0 mm 0.00 in0.0 mm 0.00 in0.0 mm
12:24 AM 47.1°F8.4°C 44.1°F6.7°C 89% 7.0 mph ENE11.3 kmh ENE 17.0 mph27.4 kmh 30.18 in1022.0 mb 0.00 in0.0 mm 0.00 in0.0 mm 0.00 in0.0 mm
12:21 AM 46.9°F8.3°C 43.9°F6.6°C 89% 7.0 mph ENE11.3 kmh ENE 17.0 mph27.4 kmh 30.18 in1022.0 mb 0.00 in0.0 mm 0.00 in0.0 mm 0.00 in0.0 mm
12:18 AM 46.8°F8.2°C 43.5°F6.4°C 88% 7.0 mph ENE11.3 kmh ENE 17.0 mph27.4 kmh 30.18 in1022.0 mb 0.00 in0.0 mm 0.00 in0.0 mm 0.00 in0.0 mm
12:15 AM 46.6°F8.1°C 43.2°F6.2°C 88% 7.0 mph ENE11.3 kmh ENE 13.0 mph20.9 kmh 30.18 in1022.0 mb 0.00 in0.0 mm 0.00 in0.0 mm 0.00 in0.0 mm
12:12 AM 46.6°F8.1°C 43.2°F6.2°C 88% 7.0 mph ENE11.3 kmh ENE 14.0 mph22.5 kmh 30.18 in1022.0 mb 0.00 in0.0 mm 0.00 in0.0 mm 0.00 in0.0 mm
12:09 AM 46.6°F8.1°C 43.2°F6.2°C 88% 8.0 mph ENE12.9 kmh ENE 14.0 mph22.5 kmh 30.18 in1022.0 mb 0.00 in0.0 mm 0.00 in0.0 mm 0.00 in0.0 mm
12:06 AM 46.6°F8.1°C 43.2°F6.2°C 88% 8.0 mph NE12.9 kmh NE 14.0 mph22.5 kmh 30.18 in1022.0 mb 0.00 in0.0 mm 0.00 in0.0 mm 0.00 in0.0 mm
12:03 AM 46.8°F8.2°C 43.0°F6.1°C 87% 8.0 mph NE12.9 kmh NE 13.0 mph20.9 kmh 30.18 in1022.0 mb 0.00 in0.0 mm 0.00 in0.0 mm 0.00 in0.0 mm
12:00 AM 46.9°F8.3°C 43.3°F6.3°C 87% 8.0 mph NE12.9 kmh NE 19.0 mph30.6 kmh 30.18 in1022.0 mb 0.00 in0.0 mm 0.00 in0.0 mm 0.00 in0.0 mm